Time;durP1;ratioP1;P1;durP2;ratioP2;P2;SDS_P1;SDS_P2;PMS_P1;PMS_P2;Temp;Humidity;BMP_temperature;BMP_pressure;BME280_temperature;BME280_humidity;BME280_pressure;Samples;Min_cycle;Max_cycle;Signal;HPM_P1;HPM_P2
2023/01/14 00:00:25;;;;;;;24.13;9.13;;;;;;;6.12;89.09;101395.72;5096281;28;20106;-63
2023/01/14 00:02:51;;;;;;;27.83;9.02;;;;;;;6.17;88.51;101395.53;5113314;28;20028;-63
2023/01/14 00:05:17;;;;;;;27.80;8.90;;;;;;;6.10;88.57;101392.25;5095157;28;20024;-63
2023/01/14 00:07:43;;;;;;;27.65;9.73;;;;;;;6.09;88.85;101406.38;5093758;28;20119;-63
2023/01/14 00:10:10;;;;;;;27.60;9.23;;;;;;;6.09;89.67;101413.44;5092003;28;20102;-63
2023/01/14 00:12:36;;;;;;;26.23;9.68;;;;;;;6.05;89.27;101407.38;5095787;28;20355;-63
2023/01/14 00:15:02;;;;;;;23.88;9.43;;;;;;;6.03;89.55;101411.88;5091624;28;20386;-63
2023/01/14 00:17:27;;;;;;;30.98;9.75;;;;;;;6.04;89.29;101413.59;5082856;28;20127;-63
2023/01/14 00:19:55;;;;;;;27.02;9.48;;;;;;;6.03;89.42;101418.91;5058960;28;20032;-63
2023/01/14 00:22:23;;;;;;;24.50;9.30;;;;;;;6.04;88.65;101408.31;5111378;28;20382;-63
2023/01/14 00:24:48;;;;;;;28.00;9.65;;;;;;;6.02;88.92;101409.28;5061947;28;20541;-63
2023/01/14 00:27:15;;;;;;;24.63;9.25;;;;;;;6.02;89.25;101406.63;5078810;28;20036;-64
2023/01/14 00:29:41;;;;;;;22.38;8.73;;;;;;;5.98;89.07;101407.66;5079989;28;20031;-63
2023/01/14 00:32:07;;;;;;;32.63;10.02;;;;;;;5.87;89.22;101386.88;5102867;28;20482;-63
2023/01/14 00:34:36;;;;;;;25.95;8.82;;;;;;;5.92;89.56;101396.38;5103919;28;20035;-63
2023/01/14 00:37:02;;;;;;;26.17;9.52;;;;;;;5.97;89.64;101398.91;5092952;28;20043;-63
2023/01/14 00:39:27;;;;;;;23.75;9.52;;;;;;;5.90;89.87;101389.41;5106197;28;20016;-63
2023/01/14 00:41:55;;;;;;;32.33;10.05;;;;;;;5.88;90.18;101391.25;5095551;28;20161;-63
2023/01/14 00:44:23;;;;;;;35.17;10.50;;;;;;;5.81;90.29;101387.09;5091442;28;20117;-63
2023/01/14 00:46:50;;;;;;;33.92;9.38;;;;;;;5.83;90.80;101399.34;5093046;28;20365;-63
2023/01/14 00:49:21;;;;;;;31.52;10.70;;;;;;;5.87;91.31;101400.09;5075173;28;20491;-63
2023/01/14 00:51:48;;;;;;;38.03;10.88;;;;;;;5.87;91.62;101410.63;5092483;28;20178;-63
2023/01/14 00:54:14;;;;;;;27.75;9.80;;;;;;;5.87;91.64;101414.13;5093692;28;20153;-63
2023/01/14 00:56:40;;;;;;;36.28;10.93;;;;;;;5.86;91.55;101407.16;5091697;28;20097;-63
2023/01/14 00:59:06;;;;;;;40.58;11.25;;;;;;;5.82;92.01;101407.28;5092694;28;20466;-63
2023/01/14 01:01:32;;;;;;;35.45;10.10;;;;;;;5.79;92.76;101404.75;5091741;28;20028;-63
2023/01/14 01:03:58;;;;;;;35.63;11.13;;;;;;;5.77;93.28;101412.75;5093886;28;20042;-63
2023/01/14 01:06:26;;;;;;;37.20;10.40;;;;;;;5.74;92.50;101404.94;5091042;28;20028;-63
2023/01/14 01:09:03;;;;;;;37.45;11.32;;;;;;;5.80;92.62;101411.78;5092405;28;20099;-63
2023/01/14 01:11:29;;;;;;;44.85;11.57;;;;;;;5.81;92.30;101418.78;5092756;28;20030;-63
2023/01/14 01:13:58;;;;;;;34.80;10.77;;;;;;;5.74;93.22;101415.50;5094182;28;20391;-63
2023/01/14 01:16:24;;;;;;;36.57;10.80;;;;;;;5.75;93.37;101411.06;5091297;28;20084;-63
2023/01/14 01:18:52;;;;;;;34.28;10.45;;;;;;;5.72;93.18;101414.66;5092204;28;20024;-63
2023/01/14 01:21:18;;;;;;;43.53;11.43;;;;;;;5.74;93.50;101404.06;5092519;28;20500;-63
2023/01/14 01:23:45;;;;;;;36.15;12.05;;;;;;;5.69;93.76;101404.22;5106613;28;20023;-63
2023/01/14 01:26:19;;;;;;;42.92;10.80;;;;;;;5.72;93.59;101409.38;5113019;28;20076;-62
2023/01/14 01:28:53;;;;;;;39.50;10.50;;;;;;;5.78;93.94;101403.91;5112841;28;20024;-62
2023/01/14 01:31:19;;;;;;;36.40;10.95;;;;;;;5.70;93.22;101405.94;5112546;28;20023;-63
2023/01/14 01:33:45;;;;;;;38.10;11.02;;;;;;;5.72;93.16;101404.09;5110672;28;20027;-63
2023/01/14 01:36:16;;;;;;;34.88;10.25;;;;;;;5.66;93.78;101404.31;5094245;28;20035;-63
2023/01/14 01:38:42;;;;;;;36.00;10.38;;;;;;;5.64;93.84;101396.44;5112080;28;20019;-63
2023/01/14 01:41:14;;;;;;;35.30;9.75;;;;;;;5.63;93.92;101402.63;5077205;28;20023;-63
2023/01/14 01:44:01;;;;;;;48.85;11.00;;;;;;;5.66;94.16;101406.97;5111665;28;20367;-63
2023/01/14 01:46:29;;;;;;;35.78;10.85;;;;;;;5.63;94.07;101402.63;5111683;28;20054;-62
2023/01/14 01:48:58;;;;;;;43.08;11.02;;;;;;;5.61;93.98;101393.06;5112273;28;20020;-63
2023/01/14 01:51:28;;;;;;;34.70;10.35;;;;;;;5.64;94.54;101403.50;5093700;28;20040;-63
2023/01/14 01:53:56;;;;;;;46.85;11.25;;;;;;;5.58;94.21;101404.56;5109985;28;20031;-63
2023/01/14 01:56:35;;;;;;;34.80;10.55;;;;;;;5.70;94.27;101405.94;5112209;28;20041;-63
2023/01/14 01:59:06;;;;;;;;;;;;;;;5.69;94.23;101406.84;5112722;28;20027;-63
2023/01/14 02:01:34;;;;;;;37.28;11.15;;;;;;;5.60;94.38;101396.63;5112002;28;19994;-63
2023/01/14 02:04:01;;;;;;;34.63;10.68;;;;;;;5.56;95.24;101402.88;5092102;28;20028;-63
2023/01/14 02:06:26;;;;;;;42.97;11.13;;;;;;;5.54;94.84;101388.91;5093569;28;20059;-63
2023/01/14 02:08:56;;;;;;;36.50;11.00;;;;;;;5.50;95.32;101379.34;5085477;28;20040;-63
2023/01/14 02:11:56;;;;;;;38.22;10.90;;;;;;;5.56;95.66;101384.41;5104912;28;20039;-63
2023/01/14 02:14:57;;;;;;;50.78;11.48;;;;;;;5.52;95.74;101378.38;5108649;28;20674;-63
2023/01/14 02:17:41;;;;;;;44.10;10.85;;;;;;;5.47;95.30;101373.28;5098362;28;20032;-63
2023/01/14 02:20:21;;;;;;;40.42;11.52;;;;;;;5.46;96.23;101365.41;5108364;28;20122;-63
2023/01/14 02:23:20;;;;;;;36.22;11.48;;;;;;;5.45;96.21;101356.63;5104216;28;20115;-63
2023/01/14 02:26:13;;;;;;;38.85;11.20;;;;;;;5.44;96.32;101343.47;5112906;28;20039;-63
2023/01/14 02:28:47;;;;;;;36.22;12.02;;;;;;;5.38;95.84;101334.03;5116179;28;20027;-63
2023/01/14 02:31:17;;;;;;;33.05;10.43;;;;;;;5.37;96.66;101323.50;5116251;28;20038;-63
2023/01/14 02:33:42;;;;;;;36.03;10.60;;;;;;;5.41;96.42;101325.13;5113878;28;20038;-63
2023/01/14 02:36:24;;;;;;;46.15;10.75;;;;;;;5.43;96.55;101310.13;5116013;28;20379;-63
2023/01/14 02:38:52;;;;;;;38.15;10.50;;;;;;;5.40;96.81;101315.50;5098710;28;20020;-63
2023/01/14 02:44:07;;;;;;;40.10;10.98;;;;;;;5.30;96.46;101298.28;5097611;28;20028;-63
2023/01/14 02:44:21;;;;;;;39.22;11.02;;;;;;;5.42;96.70;101308.41;5115482;28;20085;-63
2023/01/14 02:46:53;;;;;;;43.95;11.40;;;;;;;5.37;97.13;101299.78;5115804;28;20024;-63
2023/01/14 02:49:30;;;;;;;44.03;11.57;;;;;;;5.38;97.12;101297.09;5097323;28;20027;-62
2023/01/14 02:51:56;;;;;;;39.95;10.77;;;;;;;5.33;97.30;101290.25;5096853;28;20031;-63
2023/01/14 02:54:22;;;;;;;41.13;10.48;;;;;;;5.35;97.38;101302.44;5080177;28;20073;-63
2023/01/14 02:56:48;;;;;;;40.15;11.05;;;;;;;5.33;97.73;101280.56;5115745;28;20028;-63
2023/01/14 02:59:36;;;;;;;41.75;10.50;;;;;;;5.35;98.05;101281.34;5115646;28;20102;-62
2023/01/14 03:02:09;;;;;;;41.53;11.43;;;;;;;5.37;97.72;101290.09;5114177;28;20055;-63
2023/01/14 03:04:43;;;;;;;40.88;10.07;;;;;;;5.37;97.67;101298.00;5115499;28;20047;-63
2023/01/14 03:07:43;;;;;;;36.25;9.82;;;;;;;5.39;97.96;101282.13;5115425;28;20031;-63
2023/01/14 03:10:32;;;;;;;38.88;9.75;;;;;;;5.40;98.21;101287.34;5096603;28;20479;-63
2023/01/14 03:13:20;;;;;;;30.92;9.65;;;;;;;5.38;98.26;101278.66;5112847;28;20028;-62
2023/01/14 03:15:53;;;;;;;40.03;10.50;;;;;;;5.36;98.65;101269.06;5115434;28;20446;-63
2023/01/14 03:18:26;;;;;;;36.72;10.82;;;;;;;5.33;98.63;101262.09;5115134;28;20058;-63
2023/01/14 03:20:59;;;;;;;35.15;11.85;;;;;;;5.31;98.67;101245.47;5097957;28;20051;-63
2023/01/14 03:23:29;;;;;;;35.40;11.63;;;;;;;5.35;98.91;101252.34;5102624;28;20540;-63
2023/01/14 03:25:54;;;;;;;37.70;10.65;;;;;;;5.36;98.32;101247.97;5110107;28;20031;-63
2023/01/14 03:28:29;;;;;;;34.42;9.70;;;;;;;5.37;98.77;101253.16;5081397;28;20390;-63
2023/01/14 03:31:00;;;;;;;42.63;10.68;;;;;;;5.41;99.17;101256.53;5094118;28;20119;-63
2023/01/14 03:33:57;;;;;;;42.45;9.88;;;;;;;5.42;98.87;101251.22;5095368;28;20027;-63
2023/01/14 03:36:27;;;;;;;36.08;10.10;;;;;;;5.45;98.89;101237.94;5113657;28;20039;-63
2023/01/14 03:39:00;;;;;;;42.13;10.75;;;;;;;5.45;98.76;101245.00;5114359;28;20478;-63
2023/01/14 03:44:37;;;;;;;41.40;9.68;;;;;;;5.53;98.85;101247.34;5114944;28;20189;-62
2023/01/14 03:47:03;;;;;;;38.17;9.80;;;;;;;5.49;99.31;101243.94;5113737;28;20481;-63
2023/01/14 03:49:28;;;;;;;29.95;9.52;;;;;;;5.31;99.08;101211.19;5079463;28;20032;-62
2023/01/14 03:52:05;;;;;;;41.33;10.05;;;;;;;5.50;99.64;101240.41;5058760;28;20044;-63
2023/01/14 03:54:37;;;;;;;40.00;10.10;;;;;;;5.55;99.20;101227.03;5093699;28;20059;-63
2023/01/14 03:57:21;;;;;;;31.55;10.05;;;;;;;5.57;99.66;101220.81;5094216;28;20446;-63
2023/01/14 04:00:00;;;;;;;34.03;9.30;;;;;;;5.56;99.05;101221.72;5093842;28;20456;-63
2023/01/14 04:02:28;;;;;;;37.25;9.77;;;;;;;5.57;99.00;101218.16;5113415;28;20037;-63
2023/01/14 04:04:54;;;;;;;30.80;9.15;;;;;;;5.57;99.31;101214.66;5102345;28;20023;-63
2023/01/14 04:07:21;;;;;;;44.50;9.05;;;;;;;5.56;99.78;101219.09;5108298;28;20020;-63
2023/01/14 04:09:46;;;;;;;31.73;9.35;;;;;;;5.56;99.13;101211.19;5085076;28;20444;-63
2023/01/14 04:12:12;;;;;;;45.30;9.50;;;;;;;5.57;99.25;101197.06;5111701;28;20059;-63
2023/01/14 04:17:21;;;;;;;34.60;9.30;;;;;;;5.54;99.59;101185.75;5112621;28;20062;-63
2023/01/14 04:19:47;;;;;;;29.40;8.82;;;;;;;5.49;99.73;101171.88;5112580;28;20031;-63
2023/01/14 04:22:13;;;;;;;40.40;10.02;;;;;;;5.53;99.63;101184.91;5097887;28;20023;-63
2023/01/14 04:24:38;;;;;;;31.60;9.23;;;;;;;5.50;99.13;101169.19;5112283;28;20020;-63
2023/01/14 04:27:05;;;;;;;31.45;8.98;;;;;;;5.50;99.93;101166.56;5112696;28;20063;-63
2023/01/14 04:29:33;;;;;;;31.73;8.10;;;;;;;5.46;99.32;101159.66;5103660;28;20031;-63
2023/01/14 04:31:58;;;;;;;39.90;10.00;;;;;;;5.46;99.59;101152.59;5074841;28;20089;-63
2023/01/14 04:34:25;;;;;;;29.02;8.73;;;;;;;5.43;99.80;101146.56;5093399;28;20035;-63
2023/01/14 04:36:51;;;;;;;28.02;8.57;;;;;;;5.43;99.53;101151.84;5113167;28;20422;-63
2023/01/14 04:39:19;;;;;;;34.25;9.70;;;;;;;5.40;99.70;101150.19;5065560;28;20070;-63
2023/01/14 04:44:28;;;;;;;33.70;10.15;;;;;;;5.38;99.46;101143.25;5112281;28;20042;-63
2023/01/14 04:46:54;;;;;;;36.40;9.70;;;;;;;5.40;99.54;101147.53;5112163;28;20114;-63
2023/01/14 04:49:22;;;;;;;41.15;10.90;;;;;;;5.35;99.96;101144.22;5093130;28;20407;-62
2023/01/14 04:51:50;;;;;;;39.35;9.32;;;;;;;5.29;99.56;101140.94;5111374;28;20043;-63
2023/01/14 04:54:15;;;;;;;30.77;10.10;;;;;;;5.27;100.00;101138.38;5092710;28;20031;-63
2023/01/14 04:56:41;;;;;;;35.65;9.45;;;;;;;5.30;99.79;101137.41;5094526;28;20036;-63
2023/01/14 04:59:08;;;;;;;28.35;9.30;;;;;;;5.28;99.96;101141.88;5083843;28;20034;-63
2023/01/14 05:01:34;;;;;;;40.97;8.93;;;;;;;5.29;99.98;101125.13;5073749;28;20039;-62
2023/01/14 05:03:59;;;;;;;38.25;9.45;;;;;;;5.32;99.54;101115.31;5109534;28;20024;-63
2023/01/14 05:06:26;;;;;;;27.35;8.02;;;;;;;5.30;99.96;101116.31;5112088;28;20469;-63
2023/01/14 05:08:52;;;;;;;29.52;9.00;;;;;;;5.28;99.65;101105.81;5111725;28;20103;-63
2023/01/14 05:11:17;;;;;;;26.58;9.18;;;;;;;5.29;99.76;101111.94;5091765;28;20118;-63
2023/01/14 05:13:42;;;;;;;29.00;9.35;;;;;;;5.26;99.97;101096.22;5104672;28;20539;-63
2023/01/14 05:16:10;;;;;;;32.55;9.73;;;;;;;5.28;99.24;101094.41;5111529;28;20035;-63
2023/01/14 05:18:36;;;;;;;32.35;9.38;;;;;;;5.29;99.70;101102.25;5094024;28;20325;-63
2023/01/14 05:21:02;;;;;;;30.35;9.95;;;;;;;5.36;99.14;101087.94;5089474;28;20536;-63
2023/01/14 05:23:27;;;;;;;34.53;9.55;;;;;;;5.34;98.83;101088.91;5068882;28;20028;-62
2023/01/14 05:25:53;;;;;;;29.52;8.85;;;;;;;5.35;99.02;101082.69;5095540;28;20031;-63
2023/01/14 05:28:19;;;;;;;26.88;8.60;;;;;;;5.34;98.80;101070.44;5100449;28;20043;-63
2023/01/14 05:30:45;;;;;;;24.92;8.10;;;;;;;5.36;99.00;101060.69;5092316;28;20038;-63
2023/01/14 05:33:11;;;;;;;33.42;9.13;;;;;;;5.39;98.98;101048.25;5112777;28;20023;-62
2023/01/14 05:35:37;;;;;;;35.20;9.25;;;;;;;5.45;98.22;101040.09;5094326;28;20059;-62
2023/01/14 05:38:04;;;;;;;27.05;8.60;;;;;;;5.42;98.67;101029.66;5112579;28;20011;-63
2023/01/14 05:40:30;;;;;;;27.85;8.43;;;;;;;5.41;98.42;101013.88;5094309;28;20084;-63
2023/01/14 05:45:47;;;;;;;29.48;10.00;;;;;;;5.49;98.22;101009.19;5076729;28;20047;-63
2023/01/14 05:48:13;;;;;;;27.10;8.02;;;;;;;5.49;98.34;101000.41;5092318;28;20382;-63
2023/01/14 05:50:40;;;;;;;27.17;8.50;;;;;;;5.51;98.21;100995.94;5091793;28;20459;-61
2023/01/14 05:53:06;;;;;;;30.10;8.40;;;;;;;5.54;97.86;100995.81;5094392;28;20038;-63
2023/01/14 05:55:36;;;;;;;33.10;8.68;;;;;;;5.56;97.51;100991.31;5111897;28;20393;-63
2023/01/14 05:58:04;;;;;;;28.15;8.55;;;;;;;5.57;97.39;100985.16;5112052;28;20043;-63
2023/01/14 06:06:32;;;;;;;27.90;8.25;;;;;;;5.62;96.51;100965.56;5112483;28;20038;-63
2023/01/14 06:08:56;;;;;;;32.10;8.75;;;;;;;5.58;97.13;100947.28;5097122;28;20039;-63
2023/01/14 06:11:23;;;;;;;27.95;8.93;;;;;;;5.65;97.02;100962.81;5101971;28;20035;-63
2023/01/14 06:13:54;;;;;;;26.20;8.25;;;;;;;5.70;96.21;100954.69;5091583;28;20115;-63
2023/01/14 06:16:20;;;;;;;35.15;8.80;;;;;;;5.72;96.75;100946.72;5092692;28;20050;-62
2023/01/14 06:18:46;;;;;;;20.48;8.00;;;;;;;5.71;96.71;100935.31;5091593;28;20035;-63
2023/01/14 06:21:17;;;;;;;25.58;7.57;;;;;;;5.76;97.44;100928.03;5100244;28;20493;-63
2023/01/14 06:23:46;;;;;;;27.63;8.07;;;;;;;5.75;97.69;100928.97;5100799;28;20463;-63
2023/01/14 06:26:20;;;;;;;23.63;7.18;;;;;;;5.75;97.94;100925.47;5109392;28;20093;-63
2023/01/14 06:28:46;;;;;;;27.33;7.95;;;;;;;5.73;98.48;100914.97;5106613;28;20111;-62
2023/01/14 06:31:17;;;;;;;26.30;8.32;;;;;;;5.68;98.21;100901.16;5092834;28;20024;-62
2023/01/14 06:33:44;;;;;;;20.45;6.97;;;;;;;5.74;98.69;100895.59;5100532;28;20114;-63
2023/01/14 06:36:11;;;;;;;33.03;8.30;;;;;;;5.72;98.90;100884.25;5101156;28;20047;-63
2023/01/14 06:38:37;;;;;;;25.15;7.35;;;;;;;5.73;99.28;100879.81;5091044;28;20115;-62
2023/01/14 06:41:04;;;;;;;23.92;7.18;;;;;;;5.79;98.87;100871.63;5091510;28;20028;-63
2023/01/14 06:43:30;;;;;;;23.58;8.00;;;;;;;5.75;99.54;100862.16;5110236;28;20081;-63
2023/01/14 06:45:56;;;;;;;25.70;8.65;;;;;;;5.76;100.00;100863.84;5089469;28;20040;-63
2023/01/14 06:48:23;;;;;;;29.08;8.60;;;;;;;5.80;100.00;100868.09;5100048;28;20028;-63
2023/01/14 06:50:48;;;;;;;25.02;7.82;;;;;;;5.77;100.00;100861.16;5099044;28;20032;-62
2023/01/14 06:53:15;;;;;;;25.90;8.00;;;;;;;5.78;100.00;100860.22;5091463;28;20051;-63
2023/01/14 06:55:41;;;;;;;28.65;8.25;;;;;;;5.77;100.00;100855.88;5092802;28;20040;-63
2023/01/14 06:58:07;;;;;;;23.67;7.53;;;;;;;5.79;100.00;100847.88;5091332;28;20036;-63
2023/01/14 07:00:35;;;;;;;24.63;7.72;;;;;;;5.79;100.00;100851.38;5091837;28;20061;-63
2023/01/14 07:03:03;;;;;;;29.25;7.57;;;;;;;5.80;100.00;100836.44;5103055;28;20028;-63
2023/01/14 07:05:29;;;;;;;29.17;8.15;;;;;;;5.80;100.00;100824.09;5104737;28;20471;-63
2023/01/14 07:07:57;;;;;;;23.42;7.75;;;;;;;5.80;100.00;100825.88;5089985;28;20032;-63
2023/01/14 07:10:22;;;;;;;28.17;6.80;;;;;;;5.80;100.00;100813.53;5071940;28;20494;-63
2023/01/14 07:12:50;;;;;;;21.25;7.50;;;;;;;5.77;100.00;100803.09;5091994;28;20036;-63
2023/01/14 07:15:21;;;;;;;21.55;7.03;;;;;;;5.77;100.00;100804.91;5094646;28;20395;-63
2023/01/14 07:17:48;;;;;;;27.95;7.88;;;;;;;5.77;100.00;100782.00;5115006;28;20043;-63
2023/01/14 07:20:17;;;;;;;21.67;7.07;;;;;;;5.79;100.00;100759.03;5108557;28;20046;-63
2023/01/14 07:22:44;;;;;;;21.15;7.60;;;;;;;5.80;100.00;100762.53;5115132;28;20027;-63
2023/01/14 07:25:10;;;;;;;20.27;7.10;;;;;;;5.80;100.00;100760.75;5110066;28;20401;-62
2023/01/14 07:27:36;;;;;;;22.50;7.32;;;;;;;5.79;100.00;100753.75;5106504;28;20020;-61
2023/01/14 07:30:02;;;;;;;26.15;7.90;;;;;;;5.80;100.00;100752.84;5106597;28;20039;-63
2023/01/14 07:32:28;;;;;;;27.88;7.60;;;;;;;5.81;100.00;100765.09;5085571;28;20032;-62
2023/01/14 07:34:57;;;;;;;17.30;7.25;;;;;;;5.83;100.00;100751.84;5078259;28;20028;-62
2023/01/14 07:37:23;;;;;;;17.87;7.57;;;;;;;5.83;100.00;100734.22;5104007;28;20023;-62
2023/01/14 07:39:49;;;;;;;22.25;7.60;;;;;;;5.80;100.00;100734.34;5082158;28;20289;-62
2023/01/14 07:42:18;;;;;;;16.25;7.47;;;;;;;5.79;100.00;100716.78;5076551;28;20024;-61
2023/01/14 07:44:44;;;;;;;15.57;7.28;;;;;;;5.82;100.00;100719.28;5094861;28;20039;-61
2023/01/14 07:47:15;;;;;;;14.35;5.88;;;;;;;5.83;100.00;100699.06;5087128;28;20024;-63
2023/01/14 07:49:43;;;;;;;16.52;6.60;;;;;;;5.85;100.00;100695.44;5093044;28;20105;-63
2023/01/14 07:52:12;;;;;;;20.05;7.40;;;;;;;5.83;100.00;100683.22;5104993;28;20051;-62
2023/01/14 07:54:38;;;;;;;14.43;7.15;;;;;;;5.87;100.00;100682.16;5114019;28;20115;-63
2023/01/14 07:57:04;;;;;;;19.50;7.40;;;;;;;5.88;100.00;100675.94;5095930;28;20111;-62
2023/01/14 07:59:29;;;;;;;22.58;7.72;;;;;;;5.89;100.00;100675.88;5078166;28;20038;-63
2023/01/14 08:01:55;;;;;;;20.42;8.52;;;;;;;5.92;100.00;100657.25;5096327;28;20042;-63
2023/01/14 08:04:21;;;;;;;17.95;6.70;;;;;;;5.95;100.00;100644.88;5114093;28;20051;-63
2023/01/14 08:06:50;;;;;;;13.20;6.18;;;;;;;5.98;100.00;100642.09;5095366;28;20390;-63
2023/01/14 08:09:17;;;;;;;14.25;6.70;;;;;;;6.00;100.00;100641.09;5094205;28;20463;-63
2023/01/14 08:11:46;;;;;;;13.52;6.65;;;;;;;5.98;100.00;100611.28;5067041;28;20034;-62
2023/01/14 08:14:12;;;;;;;13.40;5.90;;;;;;;6.01;100.00;100613.75;5099277;28;20020;-63
2023/01/14 08:16:38;;;;;;;12.85;5.63;;;;;;;6.06;100.00;100613.53;5107091;28;20284;-63
2023/01/14 08:19:03;;;;;;;11.68;5.85;;;;;;;6.05;100.00;100596.84;5111953;28;20424;-63
2023/01/14 08:21:29;;;;;;;12.50;5.78;;;;;;;6.07;100.00;100588.84;5062190;28;20019;-62
2023/01/14 08:23:55;;;;;;;10.80;6.28;;;;;;;6.06;100.00;100579.19;5077622;28;20024;-63
2023/01/14 08:26:20;;;;;;;9.43;5.82;;;;;;;6.11;100.00;100572.78;5113941;28;20101;-63
2023/01/14 08:28:47;;;;;;;12.05;5.45;;;;;;;6.12;100.00;100557.81;5078691;28;20428;-63
2023/01/14 08:31:15;;;;;;;10.88;5.50;;;;;;;6.14;100.00;100563.84;5105741;28;20024;-63
2023/01/14 08:33:42;;;;;;;13.60;5.35;;;;;;;6.16;100.00;100554.06;5084583;28;20015;-62
2023/01/14 08:36:11;;;;;;;11.25;5.22;;;;;;;6.21;100.00;100546.78;5113642;28;20020;-63
2023/01/14 08:38:38;;;;;;;7.47;5.28;;;;;;;6.22;100.00;100531.78;5091721;28;20035;-63
2023/01/14 08:41:12;;;;;;;10.25;5.40;;;;;;;6.26;100.00;100528.91;5095425;28;20023;-63
2023/01/14 08:43:39;;;;;;;12.38;5.32;;;;;;;6.27;100.00;100506.03;5113807;28;20063;-63
2023/01/14 08:46:05;;;;;;;8.65;5.30;;;;;;;6.25;100.00;100507.88;5113795;28;20055;-63
2023/01/14 08:48:31;;;;;;;5.68;4.80;;;;;;;6.26;100.00;100501.66;5113557;28;20034;-63
2023/01/14 08:51:04;;;;;;;10.45;5.03;;;;;;;6.35;100.00;100507.34;5111441;28;20118;-61
2023/01/14 08:53:31;;;;;;;8.32;4.97;;;;;;;6.34;100.00;100505.59;5112886;28;20106;-63
2023/01/14 08:55:58;;;;;;;9.68;5.07;;;;;;;6.40;100.00;100490.38;5078161;28;20027;-63
2023/01/14 08:58:25;;;;;;;5.60;4.72;;;;;;;6.40;100.00;100471.91;5108237;28;20020;-63
2023/01/14 09:00:59;;;;;;;8.18;4.97;;;;;;;6.40;100.00;100462.19;5092482;28;20039;-63
2023/01/14 09:03:27;;;;;;;9.93;4.55;;;;;;;6.42;100.00;100465.59;5098464;28;20049;-63
2023/01/14 09:06:09;;;;;;;7.65;4.65;;;;;;;6.43;100.00;100461.16;5102213;28;20035;-63
2023/01/14 09:17:05;;;;;;;13.20;5.38;;;;;;;6.44;100.00;100407.41;5092685;28;20058;-63
2023/01/14 09:19:52;;;;;;;11.27;5.18;;;;;;;6.49;100.00;100419.44;5093241;28;20045;-63
2023/01/14 09:22:22;;;;;;;11.20;5.03;;;;;;;6.54;100.00;100421.84;5091723;28;20046;-63
2023/01/14 09:24:47;;;;;;;8.65;4.55;;;;;;;6.54;100.00;100420.03;5091852;28;20024;-62
2023/01/14 09:27:14;;;;;;;13.32;5.07;;;;;;;6.59;100.00;100409.25;5091108;28;20533;-63
2023/01/14 09:29:40;;;;;;;11.27;4.30;;;;;;;6.64;100.00;100403.69;5093337;28;20383;-63
2023/01/14 09:32:13;;;;;;;7.03;4.30;;;;;;;6.63;100.00;100380.88;5092454;28;20119;-63
2023/01/14 09:34:52;;;;;;;10.25;5.10;;;;;;;6.68;100.00;100374.41;5108417;28;20028;-63
2023/01/14 09:37:22;;;;;;;8.32;4.32;;;;;;;6.65;100.00;100374.56;5112706;28;20420;-63
2023/01/14 09:39:49;;;;;;;10.57;4.50;;;;;;;6.71;100.00;100370.75;5093193;28;20019;-62
2023/01/14 09:42:22;;;;;;;15.35;5.32;;;;;;;6.73;100.00;100358.28;5091225;28;20036;-63
2023/01/14 09:44:51;;;;;;;9.43;4.50;;;;;;;6.75;100.00;100348.47;5092054;28;20042;-63
2023/01/14 09:47:22;;;;;;;13.02;5.07;;;;;;;6.75;100.00;100346.69;5092043;28;20032;-63
2023/01/14 09:49:48;;;;;;;13.35;5.70;;;;;;;6.80;100.00;100357.00;5090528;28;20048;-63
2023/01/14 09:52:16;;;;;;;10.50;5.75;;;;;;;6.79;100.00;100332.38;5093081;28;20064;-63
2023/01/14 09:55:07;;;;;;;12.77;4.88;;;;;;;6.82;100.00;100337.50;5091517;28;20368;-63
2023/01/14 09:57:55;;;;;;;14.48;5.85;;;;;;;6.87;100.00;100341.66;5091799;28;20043;-63
2023/01/14 10:00:30;;;;;;;12.90;4.93;;;;;;;6.86;100.00;100329.41;5091752;28;20506;-63
2023/01/14 10:03:14;;;;;;;18.63;5.40;;;;;;;6.89;100.00;100318.66;5092538;28;20033;-63
2023/01/14 10:05:44;;;;;;;15.80;5.53;;;;;;;6.92;100.00;100305.25;5090364;28;20027;-63
2023/01/14 10:08:14;;;;;;;12.60;5.20;;;;;;;6.91;100.00;100291.19;5091619;28;20035;-63
2023/01/14 10:10:44;;;;;;;;;;;;;;;6.98;100.00;100292.53;5092064;28;20028;-63
2023/01/14 10:13:21;;;;;;;;;;;;;;;7.03;100.00;100279.06;5093226;28;19912;-63
2023/01/14 10:15:55;;;;;;;10.65;5.47;;;;;;;7.03;100.00;100253.47;5091800;28;19908;-63
2023/01/14 10:18:23;;;;;;;12.73;5.53;;;;;;;7.09;100.00;100252.25;5091214;28;20027;-62
2023/01/14 10:21:01;;;;;;;13.88;5.50;;;;;;;7.17;100.00;100252.63;5091771;28;20043;-62
2023/01/14 10:23:39;;;;;;;12.93;5.82;;;;;;;7.14;100.00;100239.59;5092268;28;20028;-63
2023/01/14 10:26:13;;;;;;;13.20;5.55;;;;;;;7.16;100.00;100229.78;5091907;28;20020;-63
2023/01/14 10:28:41;;;;;;;12.65;4.60;;;;;;;7.22;100.00;100212.72;5091207;28;20115;-63
2023/01/14 10:31:18;;;;;;;11.80;4.40;;;;;;;7.31;100.00;100220.09;5091767;28;20039;-63
2023/01/14 10:33:45;;;;;;;8.50;4.93;;;;;;;7.31;100.00;100206.88;5094412;28;20114;-63
2023/01/14 10:36:19;;;;;;;10.02;4.32;;;;;;;7.34;100.00;100211.97;5098997;28;20036;-63
2023/01/14 10:38:45;;;;;;;8.15;4.50;;;;;;;7.38;100.00;100207.34;5091131;28;20024;-63
2023/01/14 10:41:12;;;;;;;9.93;4.57;;;;;;;7.40;100.00;100192.25;5091632;28;20051;-63
2023/01/14 10:43:44;;;;;;;9.55;4.63;;;;;;;7.40;100.00;100173.72;5092126;28;20425;-63
2023/01/14 10:46:20;;;;;;;13.02;5.07;;;;;;;7.45;100.00;100180.44;5089753;28;20389;-63
2023/01/14 10:48:57;;;;;;;10.82;4.57;;;;;;;7.39;100.00;100167.59;5095316;28;20103;-63
2023/01/14 10:51:35;;;;;;;10.15;4.70;;;;;;;7.54;100.00;100151.72;5093874;28;20051;-62
2023/01/14 10:54:12;;;;;;;7.85;4.63;;;;;;;7.57;100.00;100151.53;5093865;28;20091;-63
2023/01/14 10:56:47;;;;;;;7.07;4.35;;;;;;;7.63;100.00;100137.91;5095378;28;20020;-63
2023/01/14 10:59:21;;;;;;;8.82;4.20;;;;;;;7.66;100.00;100130.63;5093934;28;20020;-63
2023/01/14 11:01:47;;;;;;;8.75;4.35;;;;;;;7.69;100.00;100126.94;5094990;28;20037;-63
2023/01/14 11:04:13;;;;;;;7.07;3.90;;;;;;;7.73;100.00;100116.09;5093905;28;20114;-63
2023/01/14 11:06:38;;;;;;;7.50;4.05;;;;;;;7.76;100.00;100114.16;5095798;28;20158;-63
2023/01/14 11:09:04;;;;;;;10.10;4.18;;;;;;;7.76;100.00;100114.16;5093099;28;20036;-63
2023/01/14 11:11:39;;;;;;;5.68;4.00;;;;;;;7.80;100.00;100121.00;5095293;28;20082;-63
2023/01/14 11:14:31;;;;;;;4.53;3.88;;;;;;;7.88;100.00;100092.22;5095119;28;20028;-63
2023/01/14 11:16:57;;;;;;;5.90;3.65;;;;;;;7.86;100.00;100083.53;5102288;28;20050;-63
2023/01/14 11:19:24;;;;;;;7.22;4.28;;;;;;;7.88;100.00;100078.97;5113424;28;20029;-63
2023/01/14 11:21:59;;;;;;;4.97;3.65;;;;;;;7.86;100.00;100073.78;5097441;28;20061;-63
2023/01/14 11:24:39;;;;;;;4.35;3.35;;;;;;;7.94;100.00;100068.84;5114718;28;20035;-63
2023/01/14 11:27:18;;;;;;;8.32;3.75;;;;;;;7.95;100.00;100065.25;5096831;28;20023;-62
2023/01/14 11:29:46;;;;;;;6.03;2.95;;;;;;;7.95;100.00;100067.06;5113849;28;20110;-62
2023/01/14 11:32:14;;;;;;;4.20;3.83;;;;;;;7.92;100.00;100049.56;5093800;28;20101;-63
2023/01/14 11:34:44;;;;;;;4.82;3.53;;;;;;;8.02;100.00;100052.44;5110547;28;20470;-63
2023/01/14 11:37:10;;;;;;;6.43;3.10;;;;;;;7.98;100.00;100037.72;5115106;28;20377;-63
2023/01/14 11:39:37;;;;;;;6.53;3.50;;;;;;;7.97;100.00;100018.34;5095944;28;20027;-63
2023/01/14 11:42:22;;;;;;;6.30;3.50;;;;;;;8.01;100.00;100034.03;5115057;28;20382;-63
2023/01/14 11:45:10;;;;;;;4.57;3.28;;;;;;;8.03;100.00;100026.81;5112694;28;20030;-63
2023/01/14 11:47:51;;;;;;;4.15;3.10;;;;;;;8.05;100.00;100017.81;5114895;28;20046;-63
2023/01/14 11:50:25;;;;;;;4.15;3.72;;;;;;;8.09;100.00;100013.16;5114143;28;20026;-63
2023/01/14 11:52:54;;;;;;;7.93;4.00;;;;;;;8.07;100.00;100013.28;5114431;28;20047;-62
2023/01/14 11:55:22;;;;;;;5.68;3.83;;;;;;;8.06;100.00;100006.31;5095216;28;20448;-63
2023/01/14 11:57:51;;;;;;;6.82;3.63;;;;;;;8.05;100.00;100011.69;5113832;28;20015;-63
2023/01/14 12:00:20;;;;;;;8.07;4.00;;;;;;;8.09;100.00;99991.97;5095634;28;20023;-63